createdAt,value
2016-09-16T00:00:41.694Z,85.63
2016-09-16T00:01:41.664Z,85.88
2016-09-16T00:02:41.632Z,86.21
2016-09-16T00:03:41.601Z,86.3
2016-09-16T00:04:41.264Z,86.07
2016-09-16T00:05:41.539Z,86.3
2016-09-16T00:06:41.202Z,86.16
2016-09-16T00:07:41.475Z,86.16
2016-09-16T00:08:41.440Z,86.07
2016-09-16T00:09:41.411Z,86.21
2016-09-16T00:10:41.379Z,86.25
2016-09-16T00:11:41.348Z,86.25
2016-09-16T00:12:41.314Z,86.16
2016-09-16T00:13:40.981Z,86.54
2016-09-16T00:14:41.252Z,86.64
2016-09-16T00:15:41.223Z,86.54
2016-09-16T00:16:41.190Z,86.64
2016-09-16T00:17:41.157Z,86.25
2016-09-16T00:18:41.123Z,86.64
2016-09-16T00:19:41.091Z,86.64
2016-09-16T00:20:41.061Z,86.83
2016-09-16T00:21:41.027Z,86.45
2016-09-16T00:22:40.998Z,86.64
2016-09-16T00:23:40.966Z,86.54
2016-09-16T00:24:40.935Z,86.35
2016-09-16T00:25:40.603Z,86.64
2016-09-16T00:26:40.874Z,87.02
2016-09-16T00:27:40.847Z,87.02
2016-09-16T00:28:40.808Z,86.93
2016-09-16T00:29:40.773Z,87.41
2016-09-16T00:30:40.750Z,87.31
2016-09-16T00:31:40.715Z,87.7
2016-09-16T00:32:40.379Z,87.6
2016-09-16T00:33:40.347Z,87.88
2016-09-16T00:34:40.617Z,87.7
2016-09-16T00:35:40.587Z,88.08
2016-09-16T00:36:40.557Z,88.27
2016-09-16T00:37:40.219Z,88.37
2016-09-16T00:38:40.190Z,88.17
2016-09-16T00:39:40.159Z,88.65
2016-09-16T00:40:40.427Z,88.08
2016-09-16T00:41:40.402Z,87.7
2016-09-16T00:42:40.364Z,87.02
2016-09-16T00:43:40.041Z,86.83
2016-09-16T00:44:40.302Z,86.64
2016-09-16T00:45:40.268Z,86.64
2016-09-16T00:46:40.235Z,87.21
2016-09-16T00:47:40.206Z,87.02
2016-09-16T00:48:40.168Z,87.31
2016-09-16T00:49:40.142Z,87.02
2016-09-16T00:50:40.112Z,87.79
2016-09-16T00:51:40.075Z,87.65
2016-09-16T00:52:40.047Z,88.08
2016-09-16T00:53:40.012Z,88.17
2016-09-16T00:54:39.982Z,88.08
2016-09-16T00:55:39.946Z,88.42
2016-09-16T00:56:39.922Z,88.37
2016-09-16T00:57:39.885Z,88.51
2016-09-16T00:58:39.552Z,88.17
2016-09-16T00:59:39.522Z,89.13
2016-09-16T01:00:39.802Z,89.23
2016-09-16T01:01:39.758Z,89.04
2016-09-16T01:02:39.727Z,88.75
2016-09-16T01:03:39.696Z,89.13
2016-09-16T01:04:39.664Z,89.32
2016-09-16T01:05:39.632Z,89.32
2016-09-16T01:06:39.602Z,89.42
2016-09-16T01:07:39.569Z,89.42
2016-09-16T01:08:39.539Z,89.32
2016-09-16T01:09:39.510Z,89.42
2016-09-16T01:10:39.471Z,89.42
2016-09-16T01:11:39.441Z,89.42
2016-09-16T01:12:39.408Z,89.32
2016-09-16T01:13:39.076Z,89.13
2016-09-16T01:14:39.352Z,89.32
2016-09-16T01:15:39.314Z,89.42
2016-09-16T01:16:39.281Z,89.13
2016-09-16T01:17:38.948Z,89.13
2016-09-16T01:18:39.218Z,88.84
2016-09-16T01:19:39.184Z,89.13
2016-09-16T01:20:39.154Z,89.42
2016-09-16T01:21:39.120Z,89.51
2016-09-16T01:22:39.090Z,89.42
2016-09-16T01:23:39.054Z,88.94
2016-09-16T01:24:39.027Z,89.13
2016-09-16T01:25:38.995Z,89.23
2016-09-16T01:26:38.962Z,89.61
2016-09-16T01:27:38.931Z,89.61
2016-09-16T01:28:38.898Z,89.61
2016-09-16T01:29:38.567Z,89.32
2016-09-16T01:30:38.843Z,89.51
2016-09-16T01:31:38.807Z,88.94
2016-09-16T01:32:38.771Z,88.94
2016-09-16T01:33:38.738Z,89.23
2016-09-16T01:34:38.705Z,89.18
2016-09-16T01:35:38.679Z,88.99
2016-09-16T01:36:38.644Z,89.18
2016-09-16T01:37:38.610Z,89.09
2016-09-16T01:38:38.580Z,88.9
2016-09-16T01:39:38.550Z,88.9
2016-09-16T01:40:38.215Z,89.09
2016-09-16T01:41:38.485Z,89.37
2016-09-16T01:42:38.449Z,89.18
2016-09-16T01:43:38.421Z,89.37
2016-09-16T01:44:38.081Z,89.28
2016-09-16T01:45:38.356Z,89.09
2016-09-16T01:46:38.324Z,89.57
2016-09-16T01:47:37.991Z,89.66
2016-09-16T01:48:38.260Z,89.86
2016-09-16T01:49:38.229Z,89.86
2016-09-16T01:50:38.197Z,89.76
2016-09-16T01:51:37.860Z,89.52
2016-09-16T01:52:37.828Z,89.72
2016-09-16T01:53:38.097Z,89.72
2016-09-16T01:54:38.066Z,89.72
2016-09-16T01:55:38.037Z,89.81
2016-09-16T01:56:38.004Z,89.52
2016-09-16T01:57:37.967Z,89.81
2016-09-16T01:58:37.938Z,89.62
2016-09-16T01:59:37.905Z,90.19
2016-09-16T02:00:37.875Z,90.09
2016-09-16T02:01:37.839Z,90.29
2016-09-16T02:02:37.812Z,90.19
2016-09-16T02:03:37.782Z,90.19
2016-09-16T02:04:37.748Z,90.19
2016-09-16T02:05:37.714Z,90.09
2016-09-16T02:06:37.683Z,90.58
2016-09-16T02:07:37.345Z,90.09
2016-09-16T02:08:37.617Z,90.29
2016-09-16T02:09:37.590Z,90.48
2016-09-16T02:10:37.552Z,90.77
2016-09-16T02:11:37.519Z,90.86
2016-09-16T02:12:37.487Z,91.05
2016-09-16T02:13:37.453Z,91.15
2016-09-16T02:14:37.121Z,90.86
2016-09-16T02:15:37.087Z,91.05
2016-09-16T02:16:37.053Z,91.34
2016-09-16T02:17:37.325Z,91.15
2016-09-16T02:18:36.989Z,91.72
2016-09-16T02:19:36.957Z,91.44
2016-09-16T02:20:37.225Z,90.86
2016-09-16T02:21:36.905Z,91.44
2016-09-16T02:22:37.168Z,91.3
2016-09-16T02:23:37.133Z,91.3
2016-09-16T02:24:37.106Z,91.53
2016-09-16T02:25:37.066Z,91.34
2016-09-16T02:26:36.738Z,91.58
2016-09-16T02:27:36.701Z,91.87
2016-09-16T02:28:36.669Z,91.68
2016-09-16T02:29:36.936Z,91.68
2016-09-16T02:30:36.907Z,91.87
2016-09-16T02:31:36.877Z,91.49
2016-09-16T02:32:36.849Z,91.77
2016-09-16T02:33:36.806Z,92.35
2016-09-16T02:34:36.771Z,92.35
2016-09-16T02:35:36.744Z,92.06
2016-09-16T02:36:36.708Z,92.35
2016-09-16T02:37:36.675Z,92.54
2016-09-16T02:38:36.349Z,92.54
2016-09-16T02:39:36.612Z,92.35
2016-09-16T02:40:36.579Z,92.54
2016-09-16T02:41:36.542Z,92.54
2016-09-16T02:42:36.512Z,92.63
2016-09-16T02:43:36.479Z,92.54
2016-09-16T02:44:36.449Z,92.25
2016-09-16T02:45:36.414Z,92.54
2016-09-16T02:46:36.085Z,92.35
2016-09-16T02:47:36.351Z,92.35
2016-09-16T02:48:36.318Z,92.16
2016-09-16T02:49:36.289Z,92.16
2016-09-16T02:50:35.952Z,92.16
2016-09-16T02:51:36.220Z,91.97
2016-09-16T02:52:36.186Z,92.63
2016-09-16T02:53:35.853Z,91.3
2016-09-16T02:54:36.122Z,92.06
2016-09-16T02:55:36.093Z,91.87
2016-09-16T02:56:36.060Z,91.49
2016-09-16T02:57:36.025Z,91.68
2016-09-16T02:58:35.988Z,91.2
2016-09-16T02:59:35.963Z,91.2
2016-09-16T03:00:35.925Z,91.2
2016-09-16T03:01:35.897Z,91.49
2016-09-16T03:02:35.558Z,91.39
2016-09-16T03:03:35.828Z,91.11
2016-09-16T03:04:35.797Z,91.01
2016-09-16T03:05:35.462Z,91.2
2016-09-16T03:06:35.730Z,91.39
2016-09-16T03:07:35.704Z,91.39
2016-09-16T03:08:35.664Z,91.01
2016-09-16T03:09:35.628Z,91.3
2016-09-16T03:10:35.602Z,91.49
2016-09-16T03:11:35.263Z,91.58
2016-09-16T03:12:35.538Z,91.39
2016-09-16T03:13:35.504Z,91.58
2016-09-16T03:14:35.175Z,91.68
2016-09-16T03:15:35.437Z,91.3
2016-09-16T03:16:35.408Z,91.01
2016-09-16T03:17:35.069Z,91.39
2016-09-16T03:18:35.339Z,91.39
2016-09-16T03:19:35.306Z,91.77
2016-09-16T03:20:35.273Z,91.39
2016-09-16T03:21:35.256Z,91.97
2016-09-16T03:22:35.206Z,91.97
2016-09-16T03:23:35.180Z,92.16
2016-09-16T03:24:34.841Z,91.68
2016-09-16T03:25:34.814Z,91.87
2016-09-16T03:26:35.078Z,91.68
2016-09-16T03:27:35.047Z,91.68
2016-09-16T03:28:35.010Z,91.68
2016-09-16T03:29:34.683Z,91.87
2016-09-16T03:30:34.947Z,92.06
2016-09-16T03:31:34.915Z,92.06
2016-09-16T03:32:34.884Z,91.87
2016-09-16T03:33:34.849Z,91.87
2016-09-16T03:34:34.823Z,91.97
2016-09-16T03:35:34.800Z,91.58
2016-09-16T03:36:34.451Z,91.49
2016-09-16T03:37:34.721Z,91.77
2016-09-16T03:38:34.688Z,91.77
2016-09-16T03:39:34.355Z,91.34
2016-09-16T03:40:34.628Z,91.58
2016-09-16T03:41:34.289Z,91.3
2016-09-16T03:42:34.560Z,91.01
2016-09-16T03:43:34.525Z,91.39
2016-09-16T03:44:34.493Z,91.58
2016-09-16T03:45:34.461Z,90.91
2016-09-16T03:46:34.430Z,90.91
2016-09-16T03:47:34.092Z,91.39
2016-09-16T03:48:34.374Z,90.82
2016-09-16T03:49:34.330Z,90.44
2016-09-16T03:50:34.296Z,90.15
2016-09-16T03:51:34.270Z,90.15
2016-09-16T03:52:34.232Z,89.67
2016-09-16T03:53:34.206Z,89.67
2016-09-16T03:54:34.167Z,89.67
2016-09-16T03:55:34.143Z,89.67
2016-09-16T03:56:34.103Z,89.58
2016-09-16T03:57:34.070Z,89.95
2016-09-16T03:58:34.047Z,89.76
2016-09-16T03:59:34.003Z,89.48
2016-09-16T04:00:33.972Z,90.05
2016-09-16T04:01:33.937Z,90.05
2016-09-16T04:02:33.909Z,90.05
2016-09-16T04:03:33.876Z,90.05
2016-09-16T04:04:33.845Z,90.05
2016-09-16T04:05:33.810Z,90.05
2016-09-16T04:06:33.778Z,90.05
2016-09-16T04:07:33.740Z,90.01
2016-09-16T04:08:33.410Z,90.05
2016-09-16T04:09:33.375Z,90.44
2016-09-16T04:10:33.640Z,90.15
2016-09-16T04:11:33.310Z,90.05
2016-09-16T04:12:33.580Z,90.15
2016-09-16T04:13:33.549Z,90.15
2016-09-16T04:14:33.514Z,89.86
2016-09-16T04:15:33.188Z,90.44
2016-09-16T04:16:33.448Z,90.05
2016-09-16T04:17:33.417Z,90.05
2016-09-16T04:18:33.384Z,90.15
2016-09-16T04:19:33.346Z,90.15
2016-09-16T04:20:33.317Z,90.24
2016-09-16T04:21:33.283Z,90.24
2016-09-16T04:22:33.248Z,90.15
2016-09-16T04:23:33.220Z,90.24
2016-09-16T04:24:33.191Z,90.1
2016-09-16T04:25:33.154Z,90.15
2016-09-16T04:26:33.119Z,90.01
2016-09-16T04:27:33.087Z,89.81
2016-09-16T04:28:32.754Z,90.01
2016-09-16T04:29:33.023Z,90.1
2016-09-16T04:30:32.989Z,89.81
2016-09-16T04:31:32.956Z,90.01
2016-09-16T04:32:32.622Z,90.24
2016-09-16T04:33:32.890Z,90.01
2016-09-16T04:34:32.856Z,90.1
2016-09-16T04:35:32.828Z,90.1
2016-09-16T04:36:32.789Z,90.1
2016-09-16T04:37:32.765Z,90.15
2016-09-16T04:38:32.733Z,90.1
2016-09-16T04:39:32.702Z,89.91
2016-09-16T04:40:32.670Z,89.91
2016-09-16T04:41:32.626Z,90.3
2016-09-16T04:42:32.593Z,90.48
2016-09-16T04:43:32.564Z,90.01
2016-09-16T04:44:32.533Z,90.2
2016-09-16T04:45:32.496Z,90.39
2016-09-16T04:46:32.744Z,90.1
2016-09-16T04:47:32.432Z,90.39
2016-09-16T04:48:32.395Z,90.77
2016-09-16T04:49:32.063Z,90.96
2016-09-16T04:50:32.330Z,91.16
2016-09-16T04:51:31.999Z,90.87
2016-09-16T04:52:32.264Z,90.87
2016-09-16T04:53:32.236Z,91.73
2016-09-16T04:54:31.899Z,91.63
2016-09-16T04:55:32.163Z,91.53
2016-09-16T04:56:32.133Z,91.25
2016-09-16T04:57:32.104Z,91.35
2016-09-16T04:58:31.768Z,91.16
2016-09-16T04:59:32.038Z,91.25
2016-09-16T05:00:32.005Z,91.44
2016-09-16T05:01:31.970Z,91.35
2016-09-16T05:02:31.636Z,91.44
2016-09-16T05:03:31.903Z,91.35
2016-09-16T05:04:31.869Z,91.25
2016-09-16T05:05:31.836Z,91.35
2016-09-16T05:06:31.504Z,91.25
2016-09-16T05:07:31.772Z,91.16
2016-09-16T05:08:31.736Z,91.44
2016-09-16T05:09:31.404Z,91.44
2016-09-16T05:10:31.369Z,91.16
2016-09-16T05:11:31.639Z,91.44
2016-09-16T05:12:31.605Z,91.44
2016-09-16T05:13:31.574Z,91.53
2016-09-16T05:14:31.538Z,91.35
2016-09-16T05:15:31.206Z,91.73
2016-09-16T05:16:31.474Z,91.53
2016-09-16T05:17:31.444Z,91.73
2016-09-16T05:18:31.106Z,91.73
2016-09-16T05:19:31.377Z,91.53
2016-09-16T05:20:31.041Z,91.53
2016-09-16T05:21:31.307Z,91.73
2016-09-16T05:22:30.988Z,91.73
2016-09-16T05:23:31.243Z,91.53
2016-09-16T05:24:30.915Z,91.25
2016-09-16T05:25:31.177Z,91.25
2016-09-16T05:26:31.145Z,91.35
2016-09-16T05:27:31.124Z,91.06
2016-09-16T05:28:31.085Z,90.96
2016-09-16T05:29:31.046Z,91.06
2016-09-16T05:30:31.023Z,91.35
2016-09-16T05:31:30.981Z,91.63
2016-09-16T05:32:30.944Z,91.63
2016-09-16T05:33:30.915Z,91.63
2016-09-16T05:34:30.584Z,91.53
2016-09-16T05:35:30.848Z,91.2
2016-09-16T05:36:30.819Z,91.58
2016-09-16T05:37:30.803Z,91.01
2016-09-16T05:38:30.757Z,91.2
2016-09-16T05:39:30.726Z,91.2
2016-09-16T05:40:30.687Z,91.2
2016-09-16T05:41:30.653Z,91.3
2016-09-16T05:42:30.624Z,91.49
2016-09-16T05:43:30.298Z,91.58
2016-09-16T05:44:30.255Z,91.58
2016-09-16T05:45:30.523Z,91.68
2016-09-16T05:46:30.185Z,91.3
2016-09-16T05:47:30.457Z,90.91
2016-09-16T05:48:30.425Z,91.49
2016-09-16T05:49:30.399Z,91.39
2016-09-16T05:50:30.359Z,91.11
2016-09-16T05:51:30.330Z,91.2
2016-09-16T05:52:30.301Z,91.3
2016-09-16T05:53:30.263Z,91.2
2016-09-16T05:54:29.928Z,90.53
2016-09-16T05:55:30.199Z,90.82
2016-09-16T05:56:30.165Z,90.91
2016-09-16T05:57:29.830Z,90.82
2016-09-16T05:58:30.098Z,90.91
2016-09-16T05:59:30.065Z,90.34
2016-09-16T06:00:30.034Z,90.44
2016-09-16T06:01:30.003Z,90.19
2016-09-16T06:02:29.973Z,90.09
2016-09-16T06:03:29.937Z,89.95
2016-09-16T06:04:29.909Z,89.95
2016-09-16T06:05:29.872Z,90.19
2016-09-16T06:06:29.839Z,90
2016-09-16T06:07:29.505Z,90.09
2016-09-16T06:08:29.774Z,90
2016-09-16T06:09:29.439Z,90.39
2016-09-16T06:10:29.710Z,90
2016-09-16T06:11:29.372Z,90
2016-09-16T06:12:29.339Z,89.9
2016-09-16T06:13:29.308Z,89.52
2016-09-16T06:14:29.585Z,89.81
2016-09-16T06:15:29.245Z,89.52
2016-09-16T06:16:29.212Z,89.04
2016-09-16T06:17:29.482Z,88.99
2016-09-16T06:18:29.452Z,88.99
2016-09-16T06:19:29.118Z,88.61
2016-09-16T06:20:29.387Z,88.32
2016-09-16T06:21:29.353Z,87.84
2016-09-16T06:22:29.320Z,87.94
2016-09-16T06:23:28.986Z,87.74
2016-09-16T06:24:28.954Z,87.65
2016-09-16T06:25:29.224Z,87.74
2016-09-16T06:26:29.194Z,87.08
2016-09-16T06:27:29.161Z,87.27
2016-09-16T06:28:29.127Z,87.37
2016-09-16T06:29:29.094Z,86.98
2016-09-16T06:30:29.063Z,86.88
2016-09-16T06:31:28.732Z,87.17
2016-09-16T06:32:28.695Z,86.69
2016-09-16T06:33:28.970Z,86.54
2016-09-16T06:34:28.937Z,86.25
2016-09-16T06:35:28.902Z,85.3
2016-09-16T06:36:28.569Z,83.85
2016-09-16T06:37:28.841Z,80.82
2016-09-16T06:38:28.808Z,76.86
2016-09-16T06:39:28.778Z,73.32
2016-09-16T06:40:28.748Z,70.54
2016-09-16T06:41:28.714Z,67.78
2016-09-16T06:42:28.685Z,65.34
2016-09-16T06:43:28.663Z,64.14
2016-09-16T06:44:28.325Z,64.4
2016-09-16T06:45:28.294Z,65.34
2016-09-16T06:46:28.565Z,65.69
2016-09-16T06:47:28.539Z,65.85
2016-09-16T06:48:28.514Z,66.04
2016-09-16T06:49:28.177Z,66.11
2016-09-16T06:50:28.450Z,65.43
2016-09-16T06:51:28.121Z,63.63
2016-09-16T06:52:28.391Z,61.28
2016-09-16T06:53:28.362Z,58.57
2016-09-16T06:54:28.335Z,56.02
2016-09-16T06:55:28.321Z,54.23
2016-09-16T06:56:28.279Z,53.77
2016-09-16T06:57:27.950Z,52.64
2016-09-16T06:58:27.924Z,51.37
2016-09-16T06:59:28.196Z,49.19
2016-09-16T07:00:28.172Z,48.54
2016-09-16T07:01:28.146Z,49.02
2016-09-16T07:02:28.122Z,49.39
2016-09-16T07:03:28.094Z,50.21
2016-09-16T07:04:28.066Z,51.45
2016-09-16T07:05:28.038Z,51.9
2016-09-16T07:06:28.014Z,52.56
2016-09-16T07:07:27.984Z,53.11
2016-09-16T07:08:27.975Z,52.53
2016-09-16T07:09:27.638Z,50.33
2016-09-16T07:10:27.608Z,48.15
2016-09-16T07:11:27.885Z,47.64
2016-09-16T07:12:27.859Z,47.64
2016-09-16T07:13:27.834Z,46.67
2016-09-16T07:14:27.804Z,47.25
2016-09-16T07:15:27.784Z,47.55
2016-09-16T07:16:27.760Z,48.39
2016-09-16T07:17:27.730Z,49.24
2016-09-16T07:18:27.400Z,49.61
2016-09-16T07:19:27.681Z,49.51
2016-09-16T07:20:27.653Z,47.86
2016-09-16T07:21:27.637Z,45.78
2016-09-16T07:22:27.610Z,44.58
2016-09-16T07:23:27.576Z,42.85
2016-09-16T07:24:27.248Z,42.02
2016-09-16T07:25:27.528Z,41.36
2016-09-16T07:26:27.503Z,38.95
2016-09-16T07:27:27.174Z,37.05
2016-09-16T07:28:27.452Z,35.55
2016-09-16T07:29:27.425Z,34.31
2016-09-16T07:30:27.410Z,32.39
2016-09-16T07:31:27.376Z,31.44
2016-09-16T07:32:27.359Z,30.1
2016-09-16T07:33:27.334Z,28.55
2016-09-16T07:34:27.311Z,27.88
2016-09-16T07:35:26.988Z,26.92
2016-09-16T07:36:27.263Z,26.45
2016-09-16T07:37:26.939Z,24.98
2016-09-16T07:38:27.221Z,24.22
2016-09-16T07:39:27.201Z,23.93
2016-09-16T07:40:27.179Z,22.86
2016-09-16T07:41:27.154Z,22.38
2016-09-16T07:42:27.134Z,21.6
2016-09-16T07:43:27.114Z,21.12
2016-09-16T07:44:26.791Z,20.73
2016-09-16T07:45:26.776Z,20.55
2016-09-16T07:46:27.055Z,19.85
2016-09-16T07:47:26.728Z,19.87
2016-09-16T07:48:27.013Z,19.18
2016-09-16T07:49:26.993Z,19.09
2016-09-16T07:50:26.970Z,18.1
2016-09-16T07:51:26.950Z,18.4
2016-09-16T07:52:26.932Z,17.42
2016-09-16T07:53:26.913Z,17.03
2016-09-16T07:54:26.892Z,16.44
2016-09-16T07:55:26.870Z,15.95
2016-09-16T07:56:26.551Z,15.66
2016-09-16T07:57:26.529Z,14.87
2016-09-16T07:58:26.812Z,14.39
2016-09-16T07:59:26.796Z,14
2016-09-16T08:00:26.779Z,13.4
2016-09-16T08:01:26.760Z,12.82
2016-09-16T08:02:26.752Z,12.82
2016-09-16T08:03:26.418Z,12.62
2016-09-16T08:04:26.702Z,12.92
2016-09-16T08:05:26.681Z,12.43
2016-09-16T08:06:26.667Z,12.23
2016-09-16T08:07:26.646Z,11.93
2016-09-16T08:08:26.629Z,12.04
2016-09-16T08:09:26.610Z,12.15
2016-09-16T08:10:26.591Z,12.24
2016-09-16T08:11:26.575Z,12.25
2016-09-16T08:12:26.556Z,11.66
2016-09-16T08:13:26.236Z,11.86
2016-09-16T08:14:26.216Z,11.66
2016-09-16T08:15:26.501Z,11.86
2016-09-16T08:16:26.179Z,10.97
2016-09-16T08:17:26.466Z,10.97
2016-09-16T08:18:26.153Z,10.98
2016-09-16T08:19:26.132Z,10.98
2016-09-16T08:20:26.412Z,10.98
2016-09-16T08:21:26.403Z,10.58
2016-09-16T08:22:26.077Z,10.89
2016-09-16T08:23:26.060Z,10.39
2016-09-16T08:24:26.045Z,10.09
2016-09-16T08:25:26.332Z,10.09
2016-09-16T08:26:26.308Z,9.89
2016-09-16T08:27:26.292Z,9.99
2016-09-16T08:28:26.274Z,9.7
2016-09-16T08:29:25.957Z,9.4
2016-09-16T08:30:26.247Z,9.3
2016-09-16T08:31:25.922Z,9.2
2016-09-16T08:32:25.910Z,9
2016-09-16T08:33:25.891Z,9.31
2016-09-16T08:34:25.874Z,8.61
2016-09-16T08:35:26.160Z,8.41
2016-09-16T08:36:25.843Z,8.71
2016-09-16T08:37:26.128Z,8.41
2016-09-16T08:38:26.108Z,8.11
2016-09-16T08:39:26.097Z,8.01
2016-09-16T08:40:26.080Z,8.61
2016-09-16T08:41:26.063Z,8.4
2016-09-16T08:42:26.048Z,8.2
2016-09-16T08:43:26.032Z,8.1
2016-09-16T08:44:25.712Z,8.49
2016-09-16T08:45:25.693Z,8.28
2016-09-16T08:46:25.980Z,8.58
2016-09-16T08:47:25.964Z,9.77
2016-09-16T08:48:25.648Z,10.66
2016-09-16T08:49:25.931Z,11.74
2016-09-16T08:50:25.612Z,12.41
2016-09-16T08:51:25.899Z,13.28
2016-09-16T08:52:25.581Z,13.66
2016-09-16T08:53:25.861Z,14.83
2016-09-16T08:54:25.846Z,15.79
2016-09-16T08:55:25.826Z,16.66
2016-09-16T08:56:25.804Z,17.92
2016-09-16T08:57:25.789Z,18.88
2016-09-16T08:58:25.768Z,19.74
2016-09-16T08:59:25.449Z,20.9
2016-09-16T09:00:25.426Z,21.86
2016-09-16T09:01:25.710Z,22.73
2016-09-16T09:02:25.688Z,23.6
2016-09-16T09:03:25.366Z,24.75
2016-09-16T09:04:25.654Z,25.13
2016-09-16T09:05:25.324Z,26.29
2016-09-16T09:06:25.608Z,26.77
2016-09-16T09:07:25.586Z,28.03
2016-09-16T09:08:25.563Z,29.08
2016-09-16T09:09:25.238Z,29.36
2016-09-16T09:10:25.218Z,30.41
2016-09-16T09:11:25.500Z,31.28
2016-09-16T09:12:25.173Z,32.05
2016-09-16T09:13:25.460Z,33.11
2016-09-16T09:14:25.428Z,34.14
2016-09-16T09:15:25.105Z,35.29
2016-09-16T09:16:25.083Z,35.66
2016-09-16T09:17:25.357Z,36.22
2016-09-16T09:18:25.335Z,36.79
2016-09-16T09:19:25.313Z,37.18
2016-09-16T09:20:24.988Z,37.45
2016-09-16T09:21:24.967Z,38.21
2016-09-16T09:22:25.247Z,38.78
2016-09-16T09:23:25.225Z,38.68
2016-09-16T09:24:25.191Z,39.34
2016-09-16T09:25:25.168Z,39.72
2016-09-16T09:26:25.144Z,40.48
2016-09-16T09:27:25.117Z,41.35
2016-09-16T09:28:24.789Z,41.72
2016-09-16T09:29:25.064Z,42.18
2016-09-16T09:30:25.041Z,42.86
2016-09-16T09:31:25.017Z,43.15
2016-09-16T09:32:24.991Z,43.44
2016-09-16T09:33:24.661Z,43.71
2016-09-16T09:34:24.939Z,43.51
2016-09-16T09:35:24.916Z,44.19
2016-09-16T09:36:24.895Z,44.67
2016-09-16T09:37:24.857Z,45.06
2016-09-16T09:38:24.834Z,44.87
2016-09-16T09:39:24.504Z,45.25
2016-09-16T09:40:24.478Z,45.06
2016-09-16T09:41:24.755Z,45.52
2016-09-16T09:42:24.428Z,45.45
2016-09-16T09:43:24.397Z,45.42
2016-09-16T09:44:24.673Z,45.35
2016-09-16T09:45:24.648Z,45.45
2016-09-16T09:46:24.618Z,45.35
2016-09-16T09:47:24.596Z,45.45
2016-09-16T09:48:24.575Z,45.45
2016-09-16T09:49:24.542Z,45.54
2016-09-16T09:50:24.514Z,45.64
2016-09-16T09:51:24.184Z,45.64
2016-09-16T09:52:24.463Z,45.64
2016-09-16T09:53:24.433Z,44.87
2016-09-16T09:54:24.407Z,44.77
2016-09-16T09:55:24.078Z,44.77
2016-09-16T09:56:24.353Z,44.6
2016-09-16T09:57:24.327Z,44.12
2016-09-16T09:58:24.301Z,43.73
2016-09-16T09:59:23.969Z,43.73
2016-09-16T10:00:24.252Z,43.44
2016-09-16T10:01:24.220Z,43.44
2016-09-16T10:02:24.194Z,43.24
2016-09-16T10:03:23.863Z,43.24
2016-09-16T10:04:24.133Z,43.15
2016-09-16T10:05:24.114Z,43.15
2016-09-16T10:06:24.086Z,43.44
2016-09-16T10:07:24.059Z,43.15
2016-09-16T10:08:24.032Z,43.75
2016-09-16T10:09:23.706Z,43.07
2016-09-16T10:10:23.982Z,42.97
2016-09-16T10:11:23.961Z,42.51
2016-09-16T10:12:23.626Z,42.03
2016-09-16T10:13:23.598Z,41.17
2016-09-16T10:14:23.571Z,38.87
2016-09-16T10:15:23.849Z,35.35
2016-09-16T10:16:23.818Z,32.79
2016-09-16T10:17:23.798Z,30.13
2016-09-16T10:18:23.769Z,27.45
2016-09-16T10:19:23.764Z,26.14
2016-09-16T10:20:23.421Z,25.09
2016-09-16T10:21:23.699Z,24.21
2016-09-16T10:22:23.372Z,23.84
2016-09-16T10:23:23.650Z,22.86
2016-09-16T10:24:23.629Z,21.4
2016-09-16T10:25:23.609Z,21.22
2016-09-16T10:26:23.583Z,20.06
2016-09-16T10:27:23.260Z,19.78
2016-09-16T10:28:23.241Z,19.2
2016-09-16T10:29:23.233Z,19.1
2016-09-16T10:30:23.502Z,19.2
2016-09-16T10:31:23.175Z,19.38
2016-09-16T10:32:23.457Z,19.48
2016-09-16T10:33:23.432Z,19.48
2016-09-16T10:34:23.415Z,19.27
2016-09-16T10:35:23.395Z,19.96
2016-09-16T10:36:23.373Z,20.92
2016-09-16T10:37:23.046Z,21.59
2016-09-16T10:38:23.334Z,22.36
2016-09-16T10:39:23.007Z,23.12
2016-09-16T10:40:22.983Z,24.08
2016-09-16T10:41:22.960Z,24.26
2016-09-16T10:42:22.941Z,24.92
2016-09-16T10:43:23.227Z,25.61
2016-09-16T10:44:23.198Z,25.99
2016-09-16T10:45:22.874Z,26.17
2016-09-16T10:46:22.851Z,25.88
2016-09-16T10:47:22.829Z,25.7
2016-09-16T10:48:23.111Z,25.7
2016-09-16T10:49:22.787Z,25.81
2016-09-16T10:50:23.069Z,25.61
2016-09-16T10:51:23.043Z,25.71
2016-09-16T10:52:22.719Z,25.9
2016-09-16T10:53:22.996Z,25.33
2016-09-16T10:54:22.980Z,23.98
2016-09-16T10:55:22.957Z,22.84
2016-09-16T10:56:22.937Z,21.49
2016-09-16T10:57:22.910Z,21.22
2016-09-16T10:58:22.890Z,21.62
2016-09-16T10:59:22.867Z,21.62
2016-09-16T11:00:22.844Z,21.22
2016-09-16T11:01:22.521Z,21.04
2016-09-16T11:02:22.808Z,20.94
2016-09-16T11:03:22.783Z,20.46
2016-09-16T11:04:22.761Z,20.46
2016-09-16T11:05:22.739Z,20.27
2016-09-16T11:06:22.722Z,19.98
2016-09-16T11:07:22.398Z,19.4
2016-09-16T11:08:22.682Z,19.11
2016-09-16T11:09:22.660Z,18.43
2016-09-16T11:10:22.640Z,18.13
2016-09-16T11:11:22.314Z,18.23
2016-09-16T11:12:22.592Z,18.23
2016-09-16T11:13:22.273Z,18.32
2016-09-16T11:14:22.254Z,19.01
2016-09-16T11:15:22.235Z,19.69
2016-09-16T11:16:22.212Z,19.29
2016-09-16T11:17:22.494Z,19.38
2016-09-16T11:18:22.473Z,19.87
2016-09-16T11:19:22.451Z,19.76
2016-09-16T11:20:22.433Z,20.15
2016-09-16T11:21:22.128Z,20.24
2016-09-16T11:22:22.390Z,20.43
2016-09-16T11:23:22.368Z,20.91
2016-09-16T11:24:22.356Z,21.39
2016-09-16T11:25:22.328Z,21.87
2016-09-16T11:26:22.306Z,22.74
2016-09-16T11:27:22.296Z,23.22
2016-09-16T11:28:21.961Z,24.09
2016-09-16T11:29:22.242Z,24.47
2016-09-16T11:30:22.221Z,25.34
2016-09-16T11:31:22.201Z,25.62
2016-09-16T11:32:21.876Z,25.99
2016-09-16T11:33:21.853Z,26.46
2016-09-16T11:34:21.829Z,26.74
2016-09-16T11:35:22.113Z,27.13
2016-09-16T11:36:22.094Z,27.51
2016-09-16T11:37:21.763Z,28.09
2016-09-16T11:38:21.743Z,28.57
2016-09-16T11:39:22.020Z,28.45
2016-09-16T11:40:21.995Z,29.13
2016-09-16T11:41:21.977Z,29.91
2016-09-16T11:42:21.948Z,30.38
2016-09-16T11:43:21.931Z,30.28
2016-09-16T11:44:21.602Z,31.06
2016-09-16T11:45:21.881Z,31.43
2016-09-16T11:46:21.854Z,32
2016-09-16T11:47:21.526Z,32.57
2016-09-16T11:48:21.505Z,32.86
2016-09-16T11:49:21.786Z,33.33
2016-09-16T11:50:21.762Z,33.53
2016-09-16T11:51:21.737Z,33.72
2016-09-16T11:52:21.410Z,34.01
2016-09-16T11:53:21.684Z,34.4
2016-09-16T11:54:21.662Z,34.88
2016-09-16T11:55:21.333Z,35.08
2016-09-16T11:56:21.614Z,34.88
2016-09-16T11:57:21.590Z,35.27
2016-09-16T11:58:21.586Z,35.47
2016-09-16T11:59:21.540Z,35.66
2016-09-16T12:00:21.516Z,36.13
2016-09-16T12:01:21.487Z,35.94
2016-09-16T12:02:21.464Z,36.42
2016-09-16T12:03:21.437Z,36.04
2016-09-16T12:04:21.111Z,36.21
2016-09-16T12:05:21.091Z,36.21
2016-09-16T12:06:21.062Z,36.21
2016-09-16T12:07:21.333Z,36.11
2016-09-16T12:08:21.008Z,36.79
2016-09-16T12:09:21.290Z,36.69
2016-09-16T12:10:20.978Z,36.99
2016-09-16T12:11:20.931Z,37.45
2016-09-16T12:12:21.212Z,37.84
2016-09-16T12:13:20.891Z,38.32
2016-09-16T12:14:21.156Z,38.62
2016-09-16T12:15:21.136Z,39.39
2016-09-16T12:16:21.107Z,39.39
2016-09-16T12:17:21.080Z,38.62
2016-09-16T12:18:21.056Z,38.81
2016-09-16T12:19:21.063Z,38.79
2016-09-16T12:20:20.706Z,38.79
2016-09-16T12:21:20.979Z,38.99
2016-09-16T12:22:20.952Z,38.32
2016-09-16T12:23:20.926Z,38.52
2016-09-16T12:24:20.903Z,38.12
2016-09-16T12:25:20.881Z,38.62
2016-09-16T12:26:20.856Z,38.21
2016-09-16T12:27:20.825Z,38.23
2016-09-16T12:28:20.802Z,38.31
2016-09-16T12:29:20.771Z,37.82
2016-09-16T12:30:20.446Z,38.02
2016-09-16T12:31:20.417Z,37.92
2016-09-16T12:32:20.695Z,37.84
2016-09-16T12:33:20.386Z,37.94
2016-09-16T12:34:20.646Z,37.45
2016-09-16T12:35:20.619Z,37.55
2016-09-16T12:36:20.290Z,38.23
2016-09-16T12:37:20.569Z,38.52
2016-09-16T12:38:20.548Z,38.4
2016-09-16T12:39:20.209Z,38.99
2016-09-16T12:40:20.487Z,38.7
2016-09-16T12:41:20.461Z,38.68
2016-09-16T12:42:20.439Z,38.78
2016-09-16T12:43:20.606Z,39.74
2016-09-16T12:44:20.084Z,40.03
2016-09-16T12:45:20.361Z,40.03
2016-09-16T12:46:20.334Z,39.82
2016-09-16T12:47:20.315Z,40.21
2016-09-16T12:48:20.279Z,39.94
2016-09-16T12:49:19.950Z,40.11
2016-09-16T12:50:19.926Z,39.82
2016-09-16T12:51:20.204Z,39.55
2016-09-16T12:52:20.177Z,40.03
2016-09-16T12:53:19.848Z,39.94
2016-09-16T12:54:20.121Z,39.26
2016-09-16T12:55:19.795Z,39.26
2016-09-16T12:56:20.072Z,39.26